Time;durP1;ratioP1;P1;durP2;ratioP2;P2;SDS_P1;SDS_P2;PMS_P1;PMS_P2;Temp;Humidity;BMP_temperature;BMP_pressure;BME280_temperature;BME280_humidity;BME280_pressure;Samples;Min_cycle;Max_cycle;Signal;HPM_P1;HPM_P2
2021/08/02 00:00:08;;;;;;;12.13;2.05;;;13.80;99.90;;;12.47;100.00;101593.72;4940278;28;20445;-75
2021/08/02 00:02:39;;;;;;;4.65;2.10;;;13.60;99.90;;;12.37;100.00;101602.94;4950157;28;20060;-75
2021/08/02 00:05:07;;;;;;;6.72;2.17;;;13.60;99.90;;;12.29;100.00;101650.81;4954890;28;20565;-75
2021/08/02 00:07:40;;;;;;;9.43;2.30;;;13.40;99.90;;;12.10;100.00;101597.84;4969041;28;20072;-75
2021/08/02 00:10:11;;;;;;;7.53;2.40;;;13.20;99.90;;;11.94;100.00;101601.97;4986051;28;22877;-75
2021/08/02 00:12:50;;;;;;;6.63;2.05;;;13.10;99.90;;;11.81;100.00;101659.59;5002074;28;20521;-75
2021/08/02 00:15:19;;;;;;;11.93;2.47;;;13.00;99.90;;;11.77;100.00;101653.59;4953244;28;20064;-75
2021/08/02 00:17:48;;;;;;;7.53;2.08;;;13.00;99.90;;;11.74;100.00;101695.06;4983770;28;20069;-75
2021/08/02 00:20:26;;;;;;;5.45;2.08;;;13.00;99.90;;;11.67;100.00;101671.53;4935162;28;20103;-75
2021/08/02 00:22:55;;;;;;;10.25;2.60;;;12.90;99.90;;;11.65;100.00;101683.06;4951354;28;20375;-75
2021/08/02 00:25:21;;;;;;;7.10;2.10;;;12.90;99.90;;;11.62;100.00;101694.59;4966818;28;20147;-75
2021/08/02 00:27:49;;;;;;;8.07;2.13;;;12.80;99.90;;;11.58;100.00;101752.78;4999532;28;20065;-75
2021/08/02 00:30:15;;;;;;;7.05;2.60;;;12.80;99.90;;;11.61;100.00;101771.13;4972302;28;20528;-75
2021/08/02 00:32:41;;;;;;;7.35;2.30;;;12.90;99.90;;;11.63;100.00;101790.41;5003631;28;20093;-75
2021/08/02 00:35:07;;;;;;;13.48;2.70;;;12.90;99.90;;;11.61;100.00;101768.50;4971272;28;20067;-76
2021/08/02 00:37:53;;;;;;;7.20;2.30;;;12.80;99.90;;;11.62;100.00;101754.38;4972162;28;20126;-75
2021/08/02 00:40:50;;;;;;;10.48;2.10;;;12.90;99.90;;;11.58;100.00;101772.09;4985676;28;20484;-75
2021/08/02 00:43:51;;;;;;;10.07;2.42;;;12.80;99.90;;;11.60;100.00;101857.34;5002462;28;20575;-75
2021/08/02 00:46:18;;;;;;;7.68;2.15;;;12.80;99.90;;;11.62;100.00;101831.75;5001467;28;20064;-75
2021/08/02 00:48:57;;;;;;;9.63;2.10;;;12.90;99.90;;;11.63;100.00;101817.66;4971287;28;20072;-74
2021/08/02 00:51:26;;;;;;;10.70;2.10;;;12.90;99.90;;;11.68;100.00;101865.84;4968824;28;20068;-76
2021/08/02 00:53:59;;;;;;;5.47;2.22;;;13.00;99.90;;;11.78;100.00;101881.38;4966996;28;20148;-75
2021/08/02 00:56:32;;;;;;;8.48;2.95;;;13.00;99.90;;;11.81;100.00;101905.88;4968750;28;20060;-75
2021/08/02 00:59:05;;;;;;;7.10;2.22;;;13.10;99.90;;;11.82;100.00;101920.81;4987848;28;20108;-75
2021/08/02 01:01:37;;;;;;;12.38;2.20;;;13.10;99.90;;;11.84;100.00;101936.59;4972223;28;20052;-75
2021/08/02 01:04:04;;;;;;;10.25;2.10;;;13.10;99.90;;;11.80;100.00;101930.53;4954922;28;20072;-75
2021/08/02 01:06:33;;;;;;;9.70;2.55;;;13.00;99.90;;;11.79;100.00;101993.91;4974305;28;20144;-75
2021/08/02 01:09:06;;;;;;;11.85;2.30;;;13.00;99.90;;;11.79;100.00;101999.19;4967415;28;20448;-75
2021/08/02 01:11:34;;;;;;;10.98;2.13;;;13.00;99.90;;;11.79;100.00;102004.47;4973239;28;20061;-75
2021/08/02 01:14:04;;;;;;;4.57;2.00;;;13.00;99.90;;;11.77;100.00;102016.84;4951585;28;20073;-75
2021/08/02 01:16:34;;;;;;;12.80;1.80;;;13.10;99.90;;;11.78;100.00;102030.00;4981996;28;20062;-75
2021/08/02 01:19:08;;;;;;;6.57;2.17;;;13.00;99.90;;;11.80;100.00;102032.59;4972829;28;20434;-75
2021/08/02 01:21:40;;;;;;;7.38;3.38;;;13.10;99.90;;;11.82;100.00;102021.09;4950342;28;20042;-75
2021/08/02 01:24:13;;;;;;;8.50;2.40;;;13.10;99.90;;;11.85;100.00;102284.91;4951434;28;20073;-75
2021/08/02 01:26:45;;;;;;;5.45;2.30;;;13.20;99.90;;;11.86;100.00;102028.00;4965080;28;20111;-75
2021/08/02 01:30:06;;;;;;;15.43;2.33;;;13.20;99.90;;;11.85;100.00;102099.28;4987220;28;20171;-75
2021/08/02 01:32:32;;;;;;;7.05;2.10;;;13.10;99.90;;;11.79;100.00;102197.13;5002290;28;20059;-75
2021/08/02 01:34:58;;;;;;;10.57;2.50;;;13.00;99.90;;;11.73;100.00;102010.81;5002690;28;20069;-75
2021/08/02 01:37:24;;;;;;;12.25;2.58;;;13.00;99.90;;;11.69;100.00;101927.41;4974713;28;20119;-74
2021/08/02 01:39:55;;;;;;;7.25;2.38;;;12.90;99.90;;;11.59;100.00;101916.25;5005916;28;20136;-76
2021/08/02 01:42:22;;;;;;;10.77;2.55;;;12.80;99.90;;;11.54;100.00;101928.75;4985973;28;20112;-75
2021/08/02 01:44:49;;;;;;;13.18;2.67;;;12.80;99.90;;;11.44;100.00;101904.41;4929995;28;20041;-75
2021/08/02 01:48:05;;;;;;;12.27;2.25;;;12.70;99.90;;;11.36;100.00;101882.72;4971795;28;20488;-75
2021/08/02 01:50:47;;;;;;;11.05;2.67;;;12.60;99.90;;;11.27;100.00;101865.41;4973160;28;20149;-75
2021/08/02 01:53:32;;;;;;;10.38;2.60;;;12.50;99.90;;;11.20;100.00;101961.41;5004853;28;20246;-75
2021/08/02 01:56:11;;;;;;;5.55;2.40;;;12.40;99.90;;;11.07;100.00;101945.09;4971182;28;20142;-76
2021/08/02 01:59:03;;;;;;;10.05;2.45;;;12.30;99.90;;;10.99;100.00;101946.22;4969877;28;20056;-75
2021/08/02 02:01:30;;;;;;;6.82;3.10;;;12.30;99.90;;;11.01;100.00;102036.66;4994964;28;20057;-75
2021/08/02 02:04:00;;;;;;;16.52;3.38;;;12.20;99.90;;;10.93;100.00;102018.44;4972672;28;20389;-75
2021/08/02 02:06:34;;;;;;;7.32;2.97;;;12.20;99.90;;;10.91;100.00;102003.53;4988546;28;20087;-75
2021/08/02 02:09:09;;;;;;;6.22;2.88;;;12.10;99.90;;;10.86;100.00;101979.97;4973095;28;20115;-74
2021/08/02 02:11:43;;;;;;;12.18;2.85;;;12.20;99.90;;;10.90;100.00;102038.72;4973713;28;20132;-75
2021/08/02 02:14:11;;;;;;;13.10;3.05;;;12.20;99.90;;;10.86;100.00;102028.28;4958131;28;20057;-75
2021/08/02 02:16:41;;;;;;;6.55;2.88;;;12.20;99.90;;;10.87;100.00;102131.91;4969769;28;20023;-75
2021/08/02 02:19:10;;;;;;;12.05;2.97;;;12.10;99.90;;;10.84;100.00;102139.88;4953992;28;20150;-75
2021/08/02 02:21:38;;;;;;;7.47;3.05;;;12.10;99.90;;;10.81;100.00;102135.53;4936750;28;20585;-75
2021/08/02 02:24:05;;;;;;;8.30;3.20;;;12.10;99.90;;;10.82;100.00;102153.09;4938477;28;20517;-74
2021/08/02 02:26:34;;;;;;;8.18;3.17;;;12.10;99.90;;;10.75;100.00;102162.03;4952988;28;20053;-76
2021/08/02 02:29:04;;;;;;;9.05;2.70;;;12.00;99.90;;;10.67;100.00;102179.81;4953761;28;20030;-75
2021/08/02 02:31:34;;;;;;;6.10;2.85;;;11.90;99.90;;;10.63;100.00;102207.13;4954316;28;20515;-75
2021/08/02 02:34:05;;;;;;;14.10;2.95;;;11.90;99.90;;;10.56;100.00;102255.56;4965529;28;20167;-76
2021/08/02 02:36:32;;;;;;;19.90;2.90;;;11.80;99.90;;;10.54;100.00;102347.81;4984426;28;20059;-76
2021/08/02 02:38:59;;;;;;;10.95;2.63;;;11.90;99.90;;;10.58;100.00;102324.88;4966898;28;20062;-75
2021/08/02 02:41:26;;;;;;;14.10;3.10;;;11.90;99.90;;;10.56;100.00;102350.38;4953853;28;20140;-75
2021/08/02 02:43:53;;;;;;;11.65;3.25;;;11.90;99.90;;;10.56;100.00;102334.59;4936881;28;20092;-75
2021/08/02 02:46:22;;;;;;;12.68;3.30;;;11.90;99.90;;;10.52;100.00;102354.88;4953477;28;20116;-75
2021/08/02 02:48:50;;;;;;;16.25;3.28;;;11.90;99.90;;;10.50;100.00;102530.50;4943854;28;20073;-75
2021/08/02 02:51:17;;;;;;;14.75;3.15;;;11.80;99.90;;;10.52;100.00;102388.22;4937868;28;20197;-76
2021/08/02 02:53:44;;;;;;;10.55;3.42;;;11.80;99.90;;;10.46;100.00;102411.16;4983202;28;20453;-75
2021/08/02 02:56:14;;;;;;;11.82;3.13;;;11.70;99.90;;;10.41;100.00;102402.50;4954270;28;20069;-75
2021/08/02 02:58:42;;;;;;;11.90;3.38;;;11.70;99.90;;;10.44;100.00;102404.19;4943261;28;20062;-75
2021/08/02 03:01:13;;;;;;;16.30;3.17;;;11.80;99.90;;;10.50;100.00;102397.94;4954441;28;20054;-76
2021/08/02 03:03:45;;;;;;;9.48;3.13;;;11.80;99.90;;;10.48;100.00;102416.41;4967935;28;20093;-75
2021/08/02 03:06:12;;;;;;;8.05;3.03;;;11.80;99.90;;;10.50;100.00;102414.59;4953933;28;20065;-74
2021/08/02 03:08:43;;;;;;;18.77;3.53;;;11.80;99.90;;;10.48;100.00;102463.81;4927611;28;20165;-75
2021/08/02 03:11:14;;;;;;;11.05;3.35;;;11.80;99.90;;;10.50;100.00;102524.38;4953243;28;21021;-75
2021/08/02 03:13:41;;;;;;;9.55;2.88;;;11.80;99.90;;;10.48;100.00;102476.97;4983461;28;20425;-75
2021/08/02 03:16:07;;;;;;;9.57;3.15;;;11.80;99.90;;;10.45;100.00;102532.31;5001412;28;20041;-75
2021/08/02 03:18:35;;;;;;;13.73;3.33;;;11.70;99.90;;;10.43;100.00;102492.88;4935994;28;20057;-75
2021/08/02 03:21:02;;;;;;;11.07;3.95;;;11.70;99.90;;;10.36;100.00;102399.06;5004152;28;20593;-75
2021/08/02 03:23:52;;;;;;;12.55;3.55;;;11.60;99.90;;;10.29;100.00;102352.69;4987185;28;20089;-76
2021/08/02 03:26:33;;;;;;;13.20;3.35;;;11.60;99.90;;;10.20;100.00;102423.91;4989999;28;20064;-76
2021/08/02 03:29:17;;;;;;;12.70;3.17;;;11.50;99.90;;;10.10;100.00;102307.38;4970281;28;20069;-75
2021/08/02 03:31:54;;;;;;;15.25;3.10;;;11.40;99.90;;;10.05;100.00;102577.69;4996763;28;20205;-75
2021/08/02 03:34:27;;;;;;;14.25;3.30;;;11.40;99.90;;;10.01;100.00;102223.34;4995491;28;20563;-75
2021/08/02 03:36:54;;;;;;;10.15;2.80;;;11.40;99.90;;;10.06;100.00;102193.44;5002592;28;20076;-75
2021/08/02 03:39:24;;;;;;;14.75;3.33;;;11.40;99.90;;;10.09;100.00;102576.75;4970158;28;20070;-75
2021/08/02 03:41:52;;;;;;;8.80;3.03;;;11.40;99.90;;;10.11;100.00;102195.06;4986423;28;20433;-75
2021/08/02 03:44:21;;;;;;;12.05;3.05;;;11.50;99.90;;;10.16;100.00;102137.94;4978285;28;20518;-75
2021/08/02 03:46:48;;;;;;;15.48;2.67;;;11.50;99.90;;;10.21;100.00;102067.63;5003452;28;20144;-78
2021/08/02 03:49:14;;;;;;;11.65;3.10;;;11.60;99.90;;;10.24;100.00;102192.16;4943692;28;20543;-74
2021/08/02 03:51:54;;;;;;;9.30;3.08;;;11.60;99.90;;;10.25;100.00;102099.09;4953734;28;20073;-75
2021/08/02 03:54:20;;;;;;;23.88;3.83;;;11.60;99.90;;;10.25;100.00;102061.38;4984945;28;20139;-75
2021/08/02 03:56:47;;;;;;;13.45;3.45;;;11.60;99.90;;;10.28;100.00;102066.59;4971978;28;20066;-75
2021/08/02 03:59:13;;;;;;;10.48;3.08;;;11.60;99.90;;;10.31;100.00;102053.38;4934907;28;20550;-74
2021/08/02 04:01:45;;;;;;;12.60;3.53;;;11.70;99.90;;;10.41;100.00;101967.13;4954183;28;20051;-75
2021/08/02 04:04:13;;;;;;;3.08;2.47;;;11.70;99.90;;;10.46;100.00;101991.56;4967386;28;20093;-75
2021/08/02 04:06:39;;;;;;;10.57;2.55;;;11.80;99.90;;;10.55;100.00;101996.59;4953703;28;20061;-75
2021/08/02 04:09:08;;;;;;;10.82;2.65;;;11.90;99.90;;;10.61;100.00;101967.47;4968767;28;20065;-75
2021/08/02 04:11:36;;;;;;;7.43;2.25;;;12.00;99.90;;;10.76;100.00;101986.41;4982218;28;20056;-75
2021/08/02 04:14:02;;;;;;;10.63;3.13;;;12.10;99.90;;;10.90;100.00;101983.38;4951904;28;20072;-74
2021/08/02 04:16:28;;;;;;;9.63;2.78;;;12.40;99.90;;;11.41;100.00;102032.91;4927707;28;20049;-76
2021/08/02 04:18:54;;;;;;;8.70;2.38;;;13.00;99.90;;;12.17;100.00;102084.28;4951883;28;20399;-76
2021/08/02 04:21:21;;;;;;;9.75;1.80;;;13.70;99.90;;;12.79;100.00;102097.22;4969333;28;20058;-75
2021/08/02 04:23:48;;;;;;;7.70;1.67;;;14.30;99.90;;;13.21;96.01;102088.69;4964277;28;20928;-75
2021/08/02 04:26:14;;;;;;;11.55;1.90;;;14.70;99.90;;;13.58;93.92;102082.06;4952184;28;20065;-75
2021/08/02 04:28:45;;;;;;;4.68;1.33;;;14.90;99.90;;;13.81;91.88;102083.84;4942270;28;20506;-76
2021/08/02 04:31:11;;;;;;;10.35;1.38;;;15.00;99.90;;;13.92;91.22;102065.75;4951391;28;20034;-76
2021/08/02 04:33:39;;;;;;;4.55;1.30;;;15.20;99.90;;;14.14;89.64;102067.53;4975671;28;20510;-75
2021/08/02 04:36:06;;;;;;;11.00;1.90;;;15.40;99.90;;;14.32;88.60;102044.75;4957051;28;20031;-75
2021/08/02 04:38:32;;;;;;;7.80;1.20;;;15.50;99.90;;;14.60;87.61;102062.16;4951605;28;20030;-77
2021/08/02 04:40:59;;;;;;;7.55;1.23;;;15.80;99.90;;;14.68;86.08;102028.25;4935869;28;20042;-75
2021/08/02 04:43:25;;;;;;;4.25;1.30;;;15.70;99.90;;;14.70;86.22;102008.69;4934003;28;20031;-76
2021/08/02 04:45:51;;;;;;;4.97;1.05;;;16.00;99.90;;;15.05;85.53;102003.59;4967133;28;20042;-74
2021/08/02 04:48:17;;;;;;;10.10;1.45;;;16.20;99.90;;;15.29;84.28;102017.56;4925865;28;20066;-75
2021/08/02 04:50:45;;;;;;;11.25;1.30;;;16.50;99.90;;;15.69;82.57;102036.09;4950712;28;20034;-75
2021/08/02 04:53:11;;;;;;;8.90;1.27;;;16.50;99.90;;;15.37;82.15;101962.34;4951032;28;20035;-76
2021/08/02 04:55:38;;;;;;;6.50;1.30;;;16.00;99.90;;;14.74;86.03;101898.94;4966185;28;20046;-75
2021/08/02 04:58:04;;;;;;;7.85;1.05;;;15.80;99.90;;;14.65;86.35;101898.50;4935071;28;20043;-75
2021/08/02 05:00:30;;;;;;;10.45;1.23;;;15.30;99.90;;;13.93;89.70;101820.34;4982916;28;20486;-75
2021/08/02 05:02:56;;;;;;;5.45;1.33;;;14.80;99.90;;;13.58;92.96;101822.72;4971470;28;20022;-75
2021/08/02 05:05:22;;;;;;;11.70;1.40;;;14.60;99.90;;;13.44;95.16;101822.44;4969068;28;20033;-75
2021/08/02 05:07:49;;;;;;;9.27;1.33;;;14.40;99.90;;;13.38;95.61;101809.47;4973951;28;20577;-75
2021/08/02 05:10:15;;;;;;;9.93;1.60;;;14.40;99.90;;;13.21;96.41;101824.19;4984943;28;20053;-76
2021/08/02 05:12:41;;;;;;;14.48;1.50;;;14.30;99.90;;;13.22;96.57;101801.28;4959473;28;20423;-76
2021/08/02 05:15:12;;;;;;;10.18;1.60;;;14.20;99.90;;;13.19;97.14;101794.31;4974579;28;20038;-75
2021/08/02 05:17:39;;;;;;;11.50;1.80;;;14.30;99.90;;;13.17;97.43;101788.22;4990962;28;20062;-75
2021/08/02 05:20:07;;;;;;;10.10;1.60;;;14.30;99.90;;;13.19;98.15;101802.25;4957530;28;20064;-75
2021/08/02 05:22:34;;;;;;;6.07;1.40;;;14.30;99.90;;;13.24;98.45;101808.22;4991573;28;20060;-75
2021/08/02 05:25:00;;;;;;;6.57;1.45;;;14.40;99.90;;;13.28;98.42;101795.72;4953045;28;20057;-76
2021/08/02 05:27:27;;;;;;;4.30;1.08;;;14.40;99.90;;;13.27;97.42;101810.72;4924121;28;20077;-75
2021/08/02 05:29:53;;;;;;;8.18;1.48;;;14.40;99.90;;;13.22;98.24;101798.63;4994550;28;20132;-75
2021/08/02 05:32:20;;;;;;;7.22;1.30;;;14.40;99.90;;;13.21;98.53;101855.94;4955232;28;20031;-75
2021/08/02 05:34:46;;;;;;;8.85;1.83;;;14.30;99.90;;;13.24;98.76;101844.38;4939757;28;20061;-75
2021/08/02 05:37:13;;;;;;;8.68;1.50;;;14.40;99.90;;;13.29;98.13;101827.44;4953541;28;20148;-76
2021/08/02 05:39:41;;;;;;;12.55;1.65;;;14.50;99.90;;;13.36;97.10;101804.22;4949277;28;20031;-76
2021/08/02 05:42:08;;;;;;;6.30;1.30;;;14.60;99.90;;;13.49;97.52;101820.47;4952477;28;20132;-76
2021/08/02 05:44:35;;;;;;;6.47;1.38;;;14.70;99.90;;;13.84;96.99;101863.13;4971284;28;20112;-75
2021/08/02 05:47:01;;;;;;;9.10;1.60;;;15.10;99.90;;;14.16;94.00;101877.63;4945312;28;20085;-76
2021/08/02 05:49:27;;;;;;;7.72;1.33;;;15.20;99.90;;;14.27;92.63;101875.38;4932049;28;20027;-76
2021/08/02 05:51:57;;;;;;;5.60;1.27;;;15.70;99.90;;;15.10;88.46;101963.63;4982910;28;20488;-77
2021/08/02 05:54:23;;;;;;;5.60;1.25;;;16.50;99.90;;;16.15;83.38;102048.03;4978665;28;20048;-76
2021/08/02 05:56:50;;;;;;;4.50;1.27;;;17.50;99.90;;;17.11;78.50;102101.78;4997692;28;20046;-75
2021/08/02 05:59:16;;;;;;;9.30;1.02;;;18.10;99.90;;;17.74;75.24;102115.22;4952884;28;20046;-74
2021/08/02 06:01:42;;;;;;;7.97;1.38;;;18.40;99.90;;;18.00;74.49;102094.31;4968245;28;20031;-76
2021/08/02 06:04:08;;;;;;;11.07;1.20;;;18.80;99.90;;;18.47;72.07;102130.75;4954357;28;20031;-76
2021/08/02 06:06:34;;;;;;;6.32;0.90;;;19.10;99.90;;;18.81;70.54;102107.44;4944973;28;20041;-76
2021/08/02 06:09:00;;;;;;;10.82;0.90;;;19.40;99.90;;;18.75;70.05;102059.75;4939246;28;20383;-76
2021/08/02 06:11:26;;;;;;;4.05;1.05;;;18.90;99.90;;;17.74;73.14;101998.03;4937045;28;20062;-76
2021/08/02 06:13:52;;;;;;;6.97;1.17;;;18.30;99.90;;;17.25;75.16;101976.78;4955245;28;20041;-76
2021/08/02 06:16:22;;;;;;;5.88;1.58;;;17.50;99.90;;;16.38;78.18;101902.50;4935959;28;20037;-76
2021/08/02 06:18:49;;;;;;;5.82;1.10;;;17.10;99.90;;;16.19;80.10;101886.66;4938895;28;20054;-76
2021/08/02 06:21:15;;;;;;;7.97;1.08;;;17.10;99.90;;;16.50;81.82;101932.91;4942406;28;20096;-76
2021/08/02 06:23:41;;;;;;;5.65;1.20;;;17.30;99.90;;;16.32;79.67;101890.38;4948822;28;20038;-75
2021/08/02 06:26:07;;;;;;;7.50;1.40;;;17.00;99.90;;;15.99;81.66;101832.75;4936070;28;20484;-75
2021/08/02 06:28:34;;;;;;;5.82;0.90;;;16.80;99.90;;;15.92;83.41;101835.81;4952659;28;20058;-75
2021/08/02 06:31:01;;;;;;;6.22;1.10;;;16.90;99.90;;;16.15;82.52;101869.16;4946313;28;20043;-75
2021/08/02 06:33:29;;;;;;;8.63;1.30;;;17.00;99.90;;;16.07;82.64;101858.06;4957586;28;20554;-75
2021/08/02 06:35:56;;;;;;;5.82;1.05;;;17.30;99.90;;;16.55;81.62;101894.50;4962940;28;20506;-75
2021/08/02 06:38:22;;;;;;;9.85;1.63;;;17.50;99.90;;;16.60;79.73;101867.66;4974013;28;20077;-75
2021/08/02 06:40:48;;;;;;;8.73;1.33;;;17.40;99.90;;;16.40;79.68;101853.63;4979445;28;20038;-75
2021/08/02 06:43:14;;;;;;;5.47;1.33;;;17.30;99.90;;;16.70;80.48;101886.66;4964288;28;20037;-75
2021/08/02 06:45:41;;;;;;;11.35;1.50;;;17.30;99.90;;;16.40;79.96;101824.41;4975066;28;20027;-75
2021/08/02 06:48:08;;;;;;;5.13;1.17;;;17.10;99.90;;;16.32;80.28;101815.97;5003597;28;20495;-75
2021/08/02 06:50:34;;;;;;;13.65;1.23;;;17.60;99.90;;;17.46;77.60;101941.94;4989755;28;20062;-75
2021/08/02 06:53:00;;;;;;;10.93;1.48;;;18.00;99.90;;;17.43;74.88;101903.91;4954758;28;20018;-75
2021/08/02 06:55:26;;;;;;;6.80;1.55;;;17.90;99.90;;;16.96;76.56;101850.69;4947278;28;20383;-76
2021/08/02 06:57:52;;;;;;;5.28;1.20;;;17.80;99.90;;;17.33;76.43;101884.06;4957779;28;20037;-76
2021/08/02 07:00:18;;;;;;;7.38;1.40;;;18.10;99.90;;;17.62;76.10;101906.38;5005199;28;20022;-75
2021/08/02 07:02:44;;;;;;;11.60;1.58;;;17.90;99.90;;;17.00;76.11;101814.97;4989292;28;20030;-76
2021/08/02 07:05:11;;;;;;;13.40;1.90;;;17.70;99.90;;;16.75;77.95;101788.84;4962557;28;20039;-77
2021/08/02 07:07:37;;;;;;;5.63;1.45;;;17.30;99.90;;;16.44;79.75;101769.28;4998526;28;20038;-76
2021/08/02 07:10:05;;;;;;;7.15;1.38;;;17.30;99.90;;;16.43;79.15;101791.47;4989181;28;20039;-75
2021/08/02 07:12:31;;;;;;;6.55;1.55;;;17.40;99.90;;;16.76;78.42;101822.47;4987705;28;20026;-76
2021/08/02 07:14:57;;;;;;;9.88;1.00;;;17.70;99.90;;;16.91;76.65;101821.66;4980228;28;20461;-75
2021/08/02 07:17:23;;;;;;;7.43;1.13;;;17.50;99.90;;;16.63;77.00;101802.81;4985778;28;20030;-75
2021/08/02 07:19:49;;;;;;;5.25;1.05;;;17.50;99.90;;;16.87;78.16;101825.44;4973721;28;20363;-76
2021/08/02 07:22:16;;;;;;;5.32;1.27;;;17.50;99.90;;;16.69;78.31;101800.66;4948725;28;20041;-77
2021/08/02 07:24:42;;;;;;;8.98;1.48;;;17.40;99.90;;;16.49;77.50;101771.69;4964942;28;20031;-75
2021/08/02 07:27:08;;;;;;;6.45;1.08;;;17.40;99.90;;;16.59;77.48;101770.25;4968948;28;20035;-76
2021/08/02 07:29:35;;;;;;;7.72;1.48;;;17.70;99.90;;;17.11;76.80;101843.66;4983362;28;20066;-76
2021/08/02 07:32:03;;;;;;;4.40;1.33;;;17.70;99.90;;;16.81;76.90;101799.19;4952614;28;20027;-76
2021/08/02 07:34:29;;;;;;;6.80;1.27;;;17.80;99.90;;;17.12;77.01;101846.19;4962726;28;21575;-76
2021/08/02 07:36:55;;;;;;;9.82;1.35;;;17.90;99.90;;;16.94;75.92;101799.34;4966001;28;20039;-75
2021/08/02 07:39:21;;;;;;;7.45;1.65;;;17.70;99.90;;;16.99;79.37;101808.78;4938007;28;20159;-76
2021/08/02 07:41:48;;;;;;;3.60;1.00;;;18.00;99.90;;;17.46;76.19;101878.03;4966405;28;20019;-76
2021/08/02 07:44:14;;;;;;;7.18;1.27;;;18.60;99.90;;;17.94;73.82;101916.97;4937119;28;20027;-76
2021/08/02 07:46:40;;;;;;;4.93;1.17;;;18.70;99.90;;;18.13;72.47;101914.06;4942917;28;20022;-76
2021/08/02 07:49:06;;;;;;;8.85;1.58;;;19.10;99.90;;;18.69;72.31;101972.09;4925867;28;20058;-77
2021/08/02 07:51:34;;;;;;;9.02;1.50;;;19.50;99.90;;;19.05;67.91;101977.00;4937301;28;20114;-77
2021/08/02 07:54:02;;;;;;;4.45;1.00;;;19.30;99.90;;;18.75;68.47;101931.69;4934754;28;20132;-77
2021/08/02 07:56:29;;;;;;;4.60;0.90;;;19.10;99.90;;;18.59;69.94;101911.28;4952384;28;20399;-76
2021/08/02 07:58:56;;;;;;;7.70;1.13;;;19.20;99.90;;;18.34;68.56;101869.28;4974840;28;20416;-76
2021/08/02 08:01:22;;;;;;;14.20;1.02;;;19.00;99.90;;;18.68;68.87;101912.50;4992282;28;20031;-75
2021/08/02 08:03:48;;;;;;;7.85;1.08;;;19.40;99.90;;;18.80;66.68;101903.78;4967691;28;20049;-76
2021/08/02 08:06:14;;;;;;;12.68;1.00;;;19.30;99.90;;;18.64;68.09;101874.53;4983251;28;20023;-75
2021/08/02 08:08:40;;;;;;;5.03;1.00;;;19.10;99.90;;;18.41;68.95;101838.59;4966538;28;20035;-75
2021/08/02 08:11:09;;;;;;;4.65;1.33;;;19.40;99.90;;;19.03;66.58;101907.69;4951699;28;21231;-75
2021/08/02 08:13:39;;;;;;;11.80;2.63;;;20.00;99.90;;;19.82;65.80;102005.00;4976789;28;20050;-78
2021/08/02 08:16:06;;;;;;;4.22;0.90;;;20.10;99.90;;;19.21;64.66;101889.63;4977490;28;20037;-74
2021/08/02 08:18:32;;;;;;;5.85;1.25;;;19.80;99.90;;;19.32;64.95;101896.09;4970373;28;20080;-75
2021/08/02 08:20:59;;;;;;;6.93;0.95;;;20.30;99.90;;;19.81;62.89;101938.31;5003190;28;20039;-74
2021/08/02 08:23:31;;;;;;;4.45;1.30;;;20.80;99.90;;;21.21;59.04;102076.81;4972089;28;20387;-75
2021/08/02 08:26:01;;;;;;;5.28;0.90;;;21.60;99.90;;;21.18;57.94;102038.66;5001721;28;20395;-75
2021/08/02 08:28:28;;;;;;;6.57;0.98;;;21.90;99.90;;;21.29;58.09;102081.59;4970492;28;20046;-75
2021/08/02 08:30:55;;;;;;;4.95;0.88;;;21.40;99.90;;;20.15;58.49;101870.06;4966755;28;20038;-75
2021/08/02 08:33:26;;;;;;;3.33;1.10;;;21.00;99.90;;;20.65;61.73;101934.41;4978011;28;20026;-74
2021/08/02 08:35:57;;;;;;;5.55;1.05;;;20.60;99.90;;;19.40;61.18;101773.59;4969275;28;20035;-74
2021/08/02 08:38:23;;;;;;;6.93;1.17;;;19.80;99.90;;;18.83;65.07;101729.28;4964087;28;20075;-74
2021/08/02 08:40:50;;;;;;;6.15;1.00;;;20.00;99.90;;;19.24;64.07;101787.97;4934601;28;20368;-75
2021/08/02 08:43:18;;;;;;;2.55;0.82;;;19.70;99.90;;;18.75;64.63;101744.94;4950742;28;20435;-75
2021/08/02 08:45:45;;;;;;;4.38;1.15;;;19.00;99.90;;;17.97;66.07;101660.13;4999791;28;20045;-75
2021/08/02 08:48:12;;;;;;;10.05;1.05;;;19.40;99.90;;;19.22;65.46;101823.72;4986377;28;20121;-75
2021/08/02 08:50:41;;;;;;;3.80;0.88;;;20.20;99.90;;;19.57;62.46;101849.94;4953857;28;20109;-75
2021/08/02 08:53:09;;;;;;;6.00;0.85;;;20.40;99.90;;;19.02;63.46;101756.47;4980277;28;21618;-75
2021/08/02 08:55:39;;;;;;;12.70;0.85;;;20.60;99.90;;;19.74;62.55;101843.47;4951791;28;20062;-75
2021/08/02 08:58:05;;;;;;;11.63;1.20;;;20.80;99.90;;;19.57;61.98;101809.84;4968631;28;20406;-75
2021/08/02 09:00:35;;;;;;;5.70;0.93;;;20.80;99.90;;;19.90;60.08;101825.44;4967476;28;20106;-75
2021/08/02 09:03:29;;;;;;;4.88;1.10;;;20.70;99.90;;;19.37;62.28;101779.13;4904700;28;20089;-75
2021/08/02 09:06:20;;;;;;;4.63;0.95;;;20.50;99.90;;;19.32;63.59;101784.78;4945099;28;20047;-75
2021/08/02 09:09:27;;;;;;;5.00;1.15;;;21.00;99.90;;;20.40;58.33;101968.16;4926752;28;20034;-75
2021/08/02 09:12:29;;;;;;;3.15;0.60;;;21.30;99.90;;;21.04;58.00;101986.94;4933589;28;20367;-75
2021/08/02 09:15:39;;;;;;;5.05;0.80;;;22.00;99.90;;;20.81;56.04;101856.53;4966238;28;20402;-75
2021/08/02 09:18:28;;;;;;;3.50;0.77;;;21.40;99.90;;;21.11;58.55;101893.63;4947676;28;20057;-75
2021/08/02 09:21:29;;;;;;;9.15;1.00;;;21.60;99.90;;;20.41;54.71;101776.41;4941304;28;20558;-75
2021/08/02 09:24:57;;;;;;;4.75;0.75;;;21.40;99.90;;;20.76;57.25;101821.25;4957244;28;20138;-75
2021/08/02 09:27:50;;;;;;;9.87;1.17;;;21.60;99.90;;;20.81;55.42;101790.47;4929567;28;20527;-75
2021/08/02 09:31:15;;;;;;;10.63;0.95;;;21.10;99.90;;;20.32;59.82;101744.97;4923160;28;20092;-75
2021/08/02 09:34:06;;;;;;;5.38;1.10;;;20.60;99.90;;;19.41;59.39;101633.75;4915605;28;20041;-75
2021/08/02 09:37:29;;;;;;;3.30;0.70;;;20.10;99.90;;;19.40;63.46;101656.09;4911993;28;20042;-76
2021/08/02 09:40:17;;;;;;;3.60;0.82;;;20.30;99.90;;;19.35;61.17;101623.50;4912168;28;20379;-76
2021/08/02 09:43:09;;;;;;;6.20;1.50;;;19.90;99.90;;;18.77;61.79;101570.47;4940446;28;20046;-75
2021/08/02 09:46:10;;;;;;;6.32;0.85;;;19.50;99.90;;;18.42;63.69;101547.03;4947158;28;20113;-75
2021/08/02 09:49:45;;;;;;;5.90;1.10;;;18.90;99.90;;;17.57;66.24;101487.69;4911253;28;20151;-75
2021/08/02 09:53:24;;;;;;;3.17;0.80;;;18.40;99.90;;;17.13;68.28;101565.00;4918471;28;20043;-75
2021/08/02 09:57:01;;;;;;;6.75;0.88;;;18.00;99.90;;;17.10;69.37;101562.50;4956870;28;20062;-75
2021/08/02 10:00:16;;;;;;;2.50;0.82;;;18.20;99.90;;;17.34;69.05;101584.09;4940094;28;20073;-75
2021/08/02 10:03:34;;;;;;;7.35;0.88;;;18.40;99.90;;;17.56;66.86;101589.81;4924410;28;20150;-75
2021/08/02 10:06:41;;;;;;;11.13;1.00;;;18.60;99.90;;;17.86;65.30;101631.50;4927402;28;20030;-75
2021/08/02 10:09:39;;;;;;;3.70;0.90;;;18.90;99.90;;;18.18;60.96;101636.59;4962330;28;20402;-75
2021/08/02 10:12:23;;;;;;;4.32;0.75;;;19.10;99.90;;;18.42;59.89;101653.69;4934200;28;20604;-75
2021/08/02 10:14:58;;;;;;;3.35;0.95;;;19.70;99.90;;;19.26;58.90;101729.13;4929156;28;20510;-75
2021/08/02 10:17:56;;;;;;;1.98;0.50;;;20.30;99.90;;;19.52;56.82;101726.50;4958132;28;20038;-75
2021/08/02 10:20:48;;;;;;;15.27;1.00;;;19.60;99.90;;;18.20;61.40;101587.53;4929044;28;20495;-75
2021/08/02 10:23:53;;;;;;;9.50;0.88;;;18.80;99.90;;;17.48;63.92;101522.03;4944182;28;20065;-75
2021/08/02 10:26:51;;;;;;;3.25;0.73;;;18.20;99.90;;;17.09;64.41;101495.13;4935741;28;20526;-75
2021/08/02 10:29:38;;;;;;;3.05;0.88;;;18.00;99.90;;;17.08;65.84;101504.06;4911175;28;20066;-76
2021/08/02 10:32:05;;;;;;;9.18;1.05;;;17.90;99.90;;;16.95;65.88;101492.47;4951172;28;20114;-75